RYR41D GCFV-LPMA
Flight info
| Callsign | RYR41D |
|---|---|
| Flight time | 1h 10m |
| Altitude | 36000 |
| Route | DCT TADEK DCT SARAY DCT BIMBO DCT EKNOT EKNOT1P |
| Aircraft | B738/M-SDE2E3FGHIRWXY/LB1 |
Departure
| Time | 2026-05-06 15:16 |
|---|---|
| Airport | Fuerteventura Airport (GCFV) |
Arrival
| Time | 2026-05-06 16:26 |
|---|---|
| Airport | Cristiano Ronaldo International Airport (LPMA) |
| Time | Latitude | Longitude | Altitude | Speed | Heading |
|---|---|---|---|---|---|
| 2026-05-06 14:33 | 28.45224 | -13.86837 | 99 ft | 0 kts | 271° |
| 2026-05-06 14:53 | 28.45224 | -13.86835 | 98 ft | 0 kts | 271° |
| 2026-05-06 14:54 | 28.45224 | -13.86828 | 98 ft | 0 kts | 269° |
| 2026-05-06 14:54 | 28.45223 | -13.86815 | 96 ft | 2 kts | 271° |
| 2026-05-06 14:54 | 28.45223 | -13.86799 | 97 ft | 2 kts | 271° |
| 2026-05-06 14:54 | 28.45223 | -13.86784 | 98 ft | 2 kts | 271° |
| 2026-05-06 14:55 | 28.45222 | -13.86767 | 99 ft | 2 kts | 271° |
| 2026-05-06 14:55 | 28.45222 | -13.86749 | 99 ft | 2 kts | 271° |
| 2026-05-06 14:55 | 28.45221 | -13.86730 | 98 ft | 2 kts | 272° |
| 2026-05-06 14:55 | 28.45221 | -13.86714 | 98 ft | 1 kts | 272° |
| 2026-05-06 14:56 | 28.45221 | -13.86712 | 98 ft | 0 kts | 272° |
| 2026-05-06 15:01 | 28.45221 | -13.86713 | 98 ft | 1 kts | 271° |
| 2026-05-06 15:01 | 28.45218 | -13.86726 | 98 ft | 3 kts | 248° |
| 2026-05-06 15:02 | 28.45197 | -13.86739 | 98 ft | 4 kts | 186° |
| 2026-05-06 15:02 | 28.45159 | -13.86742 | 99 ft | 7 kts | 184° |
| 2026-05-06 15:02 | 28.45108 | -13.86733 | 98 ft | 8 kts | 141° |
| 2026-05-06 15:02 | 28.45101 | -13.86710 | 97 ft | 3 kts | 96° |
| 2026-05-06 15:03 | 28.45098 | -13.86674 | 97 ft | 6 kts | 93° |
| 2026-05-06 15:03 | 28.45095 | -13.86620 | 96 ft | 8 kts | 102° |
| 2026-05-06 15:03 | 28.45045 | -13.86580 | 94 ft | 11 kts | 173° |
| 2026-05-06 15:03 | 28.44965 | -13.86581 | 97 ft | 13 kts | 182° |
| 2026-05-06 15:04 | 28.44867 | -13.86583 | 92 ft | 16 kts | 181° |
| 2026-05-06 15:04 | 28.44727 | -13.86587 | 71 ft | 25 kts | 182° |
| 2026-05-06 15:04 | 28.44543 | -13.86592 | 66 ft | 27 kts | 181° |
| 2026-05-06 15:04 | 28.44342 | -13.86599 | 64 ft | 30 kts | 181° |
| 2026-05-06 15:05 | 28.44120 | -13.86610 | 56 ft | 34 kts | 182° |
| 2026-05-06 15:05 | 28.43875 | -13.86616 | 44 ft | 37 kts | 181° |
| 2026-05-06 15:05 | 28.43614 | -13.86624 | 39 ft | 39 kts | 181° |
| 2026-05-06 15:05 | 28.43355 | -13.86632 | 32 ft | 25 kts | 181° |
| 2026-05-06 15:06 | 28.43253 | -13.86602 | 30 ft | 11 kts | 115° |
| 2026-05-06 15:06 | 28.43249 | -13.86547 | 31 ft | 4 kts | 91° |
| 2026-05-06 15:11 | 28.43249 | -13.86545 | 31 ft | 3 kts | 91° |
| 2026-05-06 15:12 | 28.43251 | -13.86526 | 29 ft | 3 kts | 78° |
| 2026-05-06 15:12 | 28.43267 | -13.86494 | 32 ft | 7 kts | 50° |
| 2026-05-06 15:12 | 28.43315 | -13.86447 | 33 ft | 11 kts | 20° |
| 2026-05-06 15:12 | 28.43407 | -13.86437 | 32 ft | 18 kts | 1° |
| 2026-05-06 15:13 | 28.43590 | -13.86431 | 31 ft | 20 kts | 2° |
| 2026-05-06 15:13 | 28.43598 | -13.86431 | 31 ft | 0 kts | 2° |
| 2026-05-06 15:15 | 28.43601 | -13.86430 | 31 ft | 3 kts | 2° |
| 2026-05-06 15:15 | 28.43805 | -13.86423 | 31 ft | 64 kts | 2° |
| 2026-05-06 15:15 | 28.44465 | -13.86401 | 55 ft | 125 kts | 2° |
| 2026-05-06 15:16 | 28.45512 | -13.86372 | 131 ft | 170 kts | 4° |
| 2026-05-06 15:16 | 28.46644 | -13.86385 | 1038 ft | 161 kts | 357° |
| 2026-05-06 15:16 | 28.47800 | -13.86700 | 1648 ft | 178 kts | 346° |
| 2026-05-06 15:16 | 28.48961 | -13.87048 | 2525 ft | 169 kts | 352° |
| 2026-05-06 15:17 | 28.50122 | -13.87262 | 3148 ft | 169 kts | 351° |
| 2026-05-06 15:17 | 28.51321 | -13.87499 | 3480 ft | 187 kts | 351° |
| 2026-05-06 15:17 | 28.52664 | -13.87775 | 3613 ft | 202 kts | 350° |
| 2026-05-06 15:17 | 28.54090 | -13.88080 | 3697 ft | 215 kts | 350° |
| 2026-05-06 15:18 | 28.55590 | -13.88412 | 3837 ft | 224 kts | 349° |
| 2026-05-06 15:18 | 28.57150 | -13.88763 | 4198 ft | 233 kts | 348° |
| 2026-05-06 15:18 | 28.58733 | -13.89129 | 4807 ft | 230 kts | 348° |
| 2026-05-06 15:18 | 28.60331 | -13.89503 | 4982 ft | 245 kts | 347° |
| 2026-05-06 15:19 | 28.62044 | -13.89912 | 5021 ft | 254 kts | 347° |
| 2026-05-06 15:19 | 28.63790 | -13.90327 | 5043 ft | 258 kts | 347° |
| 2026-05-06 15:19 | 28.65557 | -13.90748 | 5627 ft | 259 kts | 346° |
| 2026-05-06 15:19 | 28.67304 | -13.91166 | 6325 ft | 262 kts | 345° |
| 2026-05-06 15:20 | 28.69116 | -13.91604 | 6867 ft | 269 kts | 345° |
| 2026-05-06 15:20 | 28.70946 | -13.92044 | 7568 ft | 269 kts | 345° |
| 2026-05-06 15:20 | 28.72805 | -13.92494 | 8124 ft | 276 kts | 345° |
| 2026-05-06 15:20 | 28.74686 | -13.92950 | 8773 ft | 277 kts | 345° |
| 2026-05-06 15:21 | 28.76580 | -13.93409 | 9393 ft | 282 kts | 345° |
| 2026-05-06 15:21 | 28.78520 | -13.93880 | 9973 ft | 286 kts | 345° |
| 2026-05-06 15:21 | 28.80486 | -13.94358 | 10415 ft | 296 kts | 345° |
| 2026-05-06 15:21 | 28.82587 | -13.94871 | 10507 ft | 318 kts | 345° |
| 2026-05-06 15:22 | 28.84812 | -13.95412 | 10655 ft | 337 kts | 345° |
| 2026-05-06 15:22 | 28.87170 | -13.95985 | 10802 ft | 354 kts | 345° |
| 2026-05-06 15:22 | 28.89635 | -13.96584 | 10938 ft | 370 kts | 345° |
| 2026-05-06 15:22 | 28.92189 | -13.97203 | 11294 ft | 378 kts | 345° |
| 2026-05-06 15:23 | 28.94782 | -13.97808 | 11833 ft | 381 kts | 346° |
| 2026-05-06 15:23 | 28.97393 | -13.98384 | 12409 ft | 383 kts | 346° |
| 2026-05-06 15:23 | 29.00038 | -13.98956 | 12823 ft | 390 kts | 347° |
| 2026-05-06 15:23 | 29.01003 | -13.99165 | 12991 ft | 391 kts | 347° |
| 2026-05-06 15:24 | 29.03673 | -13.99743 | 13622 ft | 392 kts | 347° |
| 2026-05-06 15:24 | 29.06376 | -14.00330 | 14093 ft | 396 kts | 346° |
| 2026-05-06 15:24 | 29.09101 | -14.00925 | 14539 ft | 400 kts | 346° |
| 2026-05-06 15:24 | 29.11848 | -14.01526 | 15061 ft | 402 kts | 346° |
| 2026-05-06 15:25 | 29.14611 | -14.02133 | 15594 ft | 405 kts | 346° |
| 2026-05-06 15:25 | 29.17386 | -14.02743 | 16100 ft | 408 kts | 346° |
| 2026-05-06 15:25 | 29.20182 | -14.03359 | 16593 ft | 411 kts | 346° |
| 2026-05-06 15:25 | 29.23002 | -14.03980 | 17083 ft | 413 kts | 346° |
| 2026-05-06 15:26 | 29.25812 | -14.04600 | 17543 ft | 416 kts | 346° |
| 2026-05-06 15:26 | 29.28670 | -14.05231 | 18027 ft | 419 kts | 346° |
| 2026-05-06 15:26 | 29.31540 | -14.05864 | 18470 ft | 422 kts | 346° |
| 2026-05-06 15:26 | 29.34437 | -14.06504 | 18875 ft | 425 kts | 346° |
| 2026-05-06 15:27 | 29.37348 | -14.07147 | 19291 ft | 427 kts | 346° |
| 2026-05-06 15:27 | 29.40271 | -14.07793 | 19708 ft | 429 kts | 346° |
| 2026-05-06 15:27 | 29.42221 | -14.08224 | 19984 ft | 430 kts | 346° |
| 2026-05-06 15:27 | 29.45168 | -14.08876 | 20386 ft | 433 kts | 346° |
| 2026-05-06 15:28 | 29.48133 | -14.09533 | 20781 ft | 435 kts | 346° |
| 2026-05-06 15:28 | 29.51122 | -14.10195 | 21183 ft | 438 kts | 346° |
| 2026-05-06 15:28 | 29.54120 | -14.10860 | 21571 ft | 440 kts | 346° |
| 2026-05-06 15:28 | 29.57132 | -14.11528 | 21931 ft | 443 kts | 346° |
| 2026-05-06 15:29 | 29.60173 | -14.12203 | 22293 ft | 445 kts | 346° |
| 2026-05-06 15:29 | 29.63218 | -14.12879 | 22644 ft | 447 kts | 346° |
| 2026-05-06 15:29 | 29.66281 | -14.13560 | 22990 ft | 450 kts | 346° |
| 2026-05-06 15:29 | 29.69367 | -14.14246 | 23342 ft | 452 kts | 346° |
| 2026-05-06 15:30 | 29.72438 | -14.15005 | 23641 ft | 452 kts | 340° |
| 2026-05-06 15:30 | 29.75358 | -14.16317 | 23851 ft | 451 kts | 330° |
| 2026-05-06 15:30 | 29.78042 | -14.18156 | 24230 ft | 446 kts | 321° |
| 2026-05-06 15:30 | 29.80386 | -14.20420 | 24518 ft | 445 kts | 314° |
| 2026-05-06 15:31 | 29.82641 | -14.22919 | 24826 ft | 445 kts | 313° |
| 2026-05-06 15:31 | 29.84836 | -14.25395 | 25049 ft | 449 kts | 313° |
| 2026-05-06 15:31 | 29.87070 | -14.27921 | 25269 ft | 451 kts | 313° |
| 2026-05-06 15:32 | 29.91596 | -14.32998 | 25847 ft | 454 kts | 314° |
| 2026-05-06 15:32 | 29.93865 | -14.35524 | 26111 ft | 455 kts | 314° |
| 2026-05-06 15:32 | 29.96152 | -14.38062 | 26349 ft | 457 kts | 314° |
| 2026-05-06 15:32 | 29.98448 | -14.40606 | 26585 ft | 459 kts | 314° |
| 2026-05-06 15:33 | 30.00757 | -14.43165 | 26861 ft | 459 kts | 314° |
| 2026-05-06 15:33 | 30.03030 | -14.45684 | 27242 ft | 457 kts | 314° |
| 2026-05-06 15:33 | 30.05317 | -14.48220 | 27685 ft | 454 kts | 314° |
| 2026-05-06 15:33 | 30.07586 | -14.50739 | 28099 ft | 452 kts | 314° |
| 2026-05-06 15:34 | 30.09858 | -14.53264 | 28427 ft | 452 kts | 314° |
| 2026-05-06 15:34 | 30.12129 | -14.55789 | 28745 ft | 452 kts | 315° |
| 2026-05-06 15:34 | 30.14394 | -14.58310 | 29128 ft | 451 kts | 315° |
| 2026-05-06 15:34 | 30.16645 | -14.60818 | 29560 ft | 448 kts | 315° |
| 2026-05-06 15:35 | 30.18887 | -14.63316 | 29960 ft | 447 kts | 315° |
| 2026-05-06 15:35 | 30.21119 | -14.65805 | 30275 ft | 446 kts | 315° |
| 2026-05-06 15:35 | 30.23354 | -14.68300 | 30554 ft | 446 kts | 315° |
| 2026-05-06 15:35 | 30.25586 | -14.70793 | 30845 ft | 445 kts | 315° |
| 2026-05-06 15:36 | 30.27806 | -14.73273 | 31162 ft | 443 kts | 315° |
| 2026-05-06 15:36 | 30.29990 | -14.75716 | 31477 ft | 442 kts | 315° |
| 2026-05-06 15:36 | 30.32202 | -14.78191 | 31757 ft | 441 kts | 315° |
| 2026-05-06 15:36 | 30.34404 | -14.80656 | 32041 ft | 441 kts | 315° |
| 2026-05-06 15:37 | 30.36606 | -14.83124 | 32340 ft | 440 kts | 315° |
| 2026-05-06 15:37 | 30.38808 | -14.85593 | 32652 ft | 438 kts | 315° |
| 2026-05-06 15:37 | 30.40995 | -14.88046 | 32947 ft | 437 kts | 316° |
| 2026-05-06 15:37 | 30.43177 | -14.90496 | 33208 ft | 436 kts | 316° |
| 2026-05-06 15:38 | 30.45326 | -14.92910 | 33444 ft | 436 kts | 316° |
| 2026-05-06 15:38 | 30.47505 | -14.95360 | 33716 ft | 435 kts | 316° |
| 2026-05-06 15:38 | 30.49672 | -14.97798 | 34008 ft | 433 kts | 316° |
| 2026-05-06 15:38 | 30.51833 | -15.00231 | 34220 ft | 433 kts | 316° |
| 2026-05-06 15:39 | 30.53997 | -15.02667 | 34400 ft | 433 kts | 316° |
| 2026-05-06 15:39 | 30.56152 | -15.05097 | 34576 ft | 433 kts | 316° |
| 2026-05-06 15:39 | 30.58310 | -15.07530 | 34782 ft | 432 kts | 316° |
| 2026-05-06 15:39 | 30.60460 | -15.09958 | 35007 ft | 431 kts | 316° |
| 2026-05-06 15:40 | 30.62606 | -15.12381 | 35186 ft | 430 kts | 316° |
| 2026-05-06 15:40 | 30.64754 | -15.14808 | 35339 ft | 431 kts | 316° |
| 2026-05-06 15:40 | 30.66900 | -15.17235 | 35512 ft | 430 kts | 316° |
| 2026-05-06 15:40 | 30.69045 | -15.19661 | 35724 ft | 429 kts | 316° |
| 2026-05-06 15:41 | 30.70933 | -15.21800 | 35901 ft | 428 kts | 316° |
| 2026-05-06 15:41 | 30.71872 | -15.22863 | 35969 ft | 428 kts | 316° |
| 2026-05-06 15:42 | 30.76133 | -15.27694 | 36042 ft | 432 kts | 316° |
| 2026-05-06 15:42 | 30.80429 | -15.32569 | 36045 ft | 429 kts | 316° |
| 2026-05-06 15:43 | 30.84686 | -15.37408 | 36052 ft | 426 kts | 316° |
| 2026-05-06 15:43 | 30.88890 | -15.42192 | 36064 ft | 424 kts | 316° |
| 2026-05-06 15:44 | 30.93110 | -15.47002 | 36059 ft | 423 kts | 316° |
| 2026-05-06 15:44 | 30.97314 | -15.51799 | 36057 ft | 422 kts | 316° |
| 2026-05-06 15:45 | 31.01511 | -15.56594 | 36065 ft | 422 kts | 316° |
| 2026-05-06 15:45 | 31.05637 | -15.61316 | 36039 ft | 404 kts | 316° |
| 2026-05-06 15:46 | 31.09539 | -15.65787 | 36057 ft | 394 kts | 316° |
| 2026-05-06 15:46 | 31.13499 | -15.70326 | 36072 ft | 403 kts | 316° |
| 2026-05-06 15:47 | 31.17547 | -15.74972 | 36080 ft | 412 kts | 316° |
| 2026-05-06 15:47 | 31.21686 | -15.79731 | 36071 ft | 421 kts | 316° |
| 2026-05-06 15:48 | 31.25899 | -15.84581 | 36074 ft | 429 kts | 316° |
| 2026-05-06 15:48 | 31.30190 | -15.89530 | 36091 ft | 436 kts | 316° |
| 2026-05-06 15:49 | 31.34507 | -15.94514 | 36077 ft | 441 kts | 317° |
| 2026-05-06 15:49 | 31.38899 | -15.99572 | 36080 ft | 443 kts | 319° |
| 2026-05-06 15:50 | 31.43946 | -16.03585 | 36085 ft | 425 kts | 333° |
| 2026-05-06 15:50 | 31.46618 | -16.04938 | 36033 ft | 411 kts | 342° |
| 2026-05-06 15:50 | 31.49304 | -16.05870 | 36127 ft | 396 kts | 343° |
| 2026-05-06 15:51 | 31.54552 | -16.07641 | 36104 ft | 392 kts | 343° |
| 2026-05-06 15:51 | 31.59789 | -16.09430 | 36098 ft | 390 kts | 343° |
| 2026-05-06 15:52 | 31.64997 | -16.11229 | 36095 ft | 389 kts | 343° |
| 2026-05-06 15:52 | 31.70138 | -16.13014 | 35495 ft | 378 kts | 343° |
| 2026-05-06 15:53 | 31.72660 | -16.13890 | 34728 ft | 380 kts | 342° |
| 2026-05-06 15:53 | 31.75202 | -16.14775 | 33981 ft | 381 kts | 342° |
| 2026-05-06 15:53 | 31.77707 | -16.15646 | 33354 ft | 377 kts | 342° |
| 2026-05-06 15:53 | 31.80196 | -16.16513 | 32882 ft | 369 kts | 342° |
| 2026-05-06 15:54 | 31.82640 | -16.17364 | 32384 ft | 363 kts | 342° |
| 2026-05-06 15:54 | 31.85047 | -16.18203 | 31813 ft | 359 kts | 342° |
| 2026-05-06 15:54 | 31.87430 | -16.19034 | 31253 ft | 355 kts | 343° |
| 2026-05-06 15:54 | 31.89797 | -16.19861 | 30724 ft | 351 kts | 343° |
| 2026-05-06 15:55 | 31.92114 | -16.20670 | 30388 ft | 341 kts | 343° |
| 2026-05-06 15:55 | 31.94304 | -16.21435 | 30348 ft | 325 kts | 343° |
| 2026-05-06 15:55 | 31.96474 | -16.22193 | 29824 ft | 327 kts | 343° |
| 2026-05-06 15:55 | 31.98660 | -16.22958 | 29346 ft | 326 kts | 343° |
| 2026-05-06 15:56 | 32.00827 | -16.23716 | 28987 ft | 323 kts | 343° |
| 2026-05-06 15:56 | 32.02971 | -16.24467 | 28640 ft | 320 kts | 343° |
| 2026-05-06 15:56 | 32.05101 | -16.25213 | 28238 ft | 318 kts | 343° |
| 2026-05-06 15:56 | 32.07222 | -16.25957 | 27815 ft | 318 kts | 343° |
| 2026-05-06 15:57 | 32.09343 | -16.26700 | 27418 ft | 317 kts | 343° |
| 2026-05-06 15:57 | 32.11454 | -16.27441 | 27059 ft | 315 kts | 343° |
| 2026-05-06 15:57 | 32.13541 | -16.28173 | 26713 ft | 312 kts | 342° |
| 2026-05-06 15:57 | 32.15622 | -16.28903 | 26351 ft | 311 kts | 342° |
| 2026-05-06 15:58 | 32.17694 | -16.29631 | 25977 ft | 310 kts | 343° |
| 2026-05-06 15:58 | 32.19742 | -16.30327 | 25628 ft | 309 kts | 343° |
| 2026-05-06 15:58 | 32.21810 | -16.31015 | 25288 ft | 307 kts | 343° |
| 2026-05-06 15:58 | 32.23866 | -16.31695 | 24953 ft | 306 kts | 343° |
| 2026-05-06 15:59 | 32.25914 | -16.32374 | 24609 ft | 305 kts | 343° |
| 2026-05-06 15:59 | 32.27955 | -16.33051 | 24263 ft | 304 kts | 343° |
| 2026-05-06 15:59 | 32.29985 | -16.33726 | 23959 ft | 302 kts | 343° |
| 2026-05-06 15:59 | 32.32002 | -16.34398 | 23637 ft | 301 kts | 343° |
| 2026-05-06 16:00 | 32.34018 | -16.35070 | 23252 ft | 300 kts | 343° |
| 2026-05-06 16:00 | 32.36019 | -16.35737 | 22868 ft | 299 kts | 343° |
| 2026-05-06 16:00 | 32.37992 | -16.36396 | 22826 ft | 287 kts | 343° |
| 2026-05-06 16:00 | 32.39870 | -16.37023 | 22765 ft | 276 kts | 343° |
| 2026-05-06 16:01 | 32.41696 | -16.37633 | 22668 ft | 266 kts | 343° |
| 2026-05-06 16:01 | 32.43450 | -16.38220 | 22478 ft | 260 kts | 343° |
| 2026-05-06 16:01 | 32.45195 | -16.38804 | 22046 ft | 262 kts | 343° |
| 2026-05-06 16:01 | 32.46940 | -16.39389 | 21646 ft | 263 kts | 343° |
| 2026-05-06 16:02 | 32.48699 | -16.39978 | 21332 ft | 261 kts | 343° |
| 2026-05-06 16:02 | 32.50417 | -16.40553 | 21201 ft | 253 kts | 343° |
| 2026-05-06 16:02 | 32.52125 | -16.41126 | 20699 ft | 259 kts | 343° |
| 2026-05-06 16:02 | 32.53869 | -16.41712 | 20290 ft | 262 kts | 343° |
| 2026-05-06 16:03 | 32.55617 | -16.42298 | 20020 ft | 259 kts | 342° |
| 2026-05-06 16:03 | 32.57347 | -16.42879 | 19787 ft | 255 kts | 342° |
| 2026-05-06 16:03 | 32.59012 | -16.43437 | 19700 ft | 245 kts | 342° |
| 2026-05-06 16:03 | 32.60688 | -16.44001 | 19108 ft | 254 kts | 342° |
| 2026-05-06 16:04 | 32.62386 | -16.44572 | 18687 ft | 254 kts | 342° |
| 2026-05-06 16:04 | 32.64099 | -16.45147 | 18100 ft | 259 kts | 342° |
| 2026-05-06 16:04 | 32.65858 | -16.45736 | 17491 ft | 264 kts | 342° |
| 2026-05-06 16:04 | 32.67658 | -16.46344 | 16707 ft | 275 kts | 342° |
| 2026-05-06 16:05 | 32.69500 | -16.46966 | 16028 ft | 282 kts | 342° |
| 2026-05-06 16:05 | 32.71441 | -16.47620 | 15307 ft | 290 kts | 342° |
| 2026-05-06 16:05 | 32.72976 | -16.48138 | 14800 ft | 294 kts | 343° |
| 2026-05-06 16:05 | 32.74914 | -16.48790 | 14566 ft | 284 kts | 342° |
| 2026-05-06 16:06 | 32.76531 | -16.49334 | 14235 ft | 280 kts | 343° |
| 2026-05-06 16:06 | 32.78377 | -16.50059 | 13677 ft | 281 kts | 330° |
| 2026-05-06 16:06 | 32.80050 | -16.51239 | 13173 ft | 278 kts | 338° |
| 2026-05-06 16:06 | 32.81955 | -16.51495 | 12635 ft | 281 kts | 10° |
| 2026-05-06 16:07 | 32.83735 | -16.50564 | 12253 ft | 279 kts | 29° |
| 2026-05-06 16:07 | 32.85359 | -16.49311 | 11790 ft | 279 kts | 36° |
| 2026-05-06 16:07 | 32.86540 | -16.47455 | 11174 ft | 291 kts | 69° |
| 2026-05-06 16:07 | 32.86695 | -16.45080 | 10794 ft | 292 kts | 101° |
| 2026-05-06 16:08 | 32.85794 | -16.42936 | 10319 ft | 295 kts | 131° |
| 2026-05-06 16:08 | 32.84078 | -16.41552 | 9400 ft | 309 kts | 163° |
| 2026-05-06 16:08 | 32.81936 | -16.41375 | 8567 ft | 314 kts | 194° |
| 2026-05-06 16:08 | 32.79977 | -16.42471 | 7716 ft | 315 kts | 224° |
| 2026-05-06 16:09 | 32.78719 | -16.44562 | 6884 ft | 313 kts | 253° |
| 2026-05-06 16:09 | 32.78350 | -16.47079 | 6062 ft | 310 kts | 276° |
| 2026-05-06 16:09 | 32.78865 | -16.49550 | 5346 ft | 306 kts | 296° |
| 2026-05-06 16:09 | 32.80127 | -16.51456 | 5207 ft | 283 kts | 317° |
| 2026-05-06 16:10 | 32.81359 | -16.53140 | 5107 ft | 266 kts | 309° |
| 2026-05-06 16:10 | 32.82467 | -16.54857 | 4968 ft | 252 kts | 310° |
| 2026-05-06 16:10 | 32.83542 | -16.56446 | 4798 ft | 241 kts | 311° |
| 2026-05-06 16:10 | 32.84584 | -16.57930 | 4607 ft | 226 kts | 312° |
| 2026-05-06 16:11 | 32.85562 | -16.59307 | 4368 ft | 215 kts | 311° |
| 2026-05-06 16:11 | 32.86358 | -16.60788 | 3907 ft | 216 kts | 296° |
| 2026-05-06 16:11 | 32.86791 | -16.62578 | 3034 ft | 236 kts | 282° |
| 2026-05-06 16:11 | 32.86890 | -16.64574 | 2392 ft | 243 kts | 269° |
| 2026-05-06 16:12 | 32.86394 | -16.66425 | 2196 ft | 233 kts | 238° |
| 2026-05-06 16:12 | 32.85272 | -16.67680 | 2194 ft | 216 kts | 208° |
| 2026-05-06 16:12 | 32.84369 | -16.68197 | 2028 ft | 214 kts | 206° |
| 2026-05-06 16:12 | 32.83002 | -16.68772 | 1676 ft | 210 kts | 191° |
| 2026-05-06 16:13 | 32.81564 | -16.69083 | 1327 ft | 210 kts | 188° |
| 2026-05-06 16:13 | 32.80169 | -16.69373 | 1170 ft | 201 kts | 188° |
| 2026-05-06 16:13 | 32.78820 | -16.69553 | 1121 ft | 188 kts | 184° |
| 2026-05-06 16:13 | 32.77558 | -16.69663 | 1068 ft | 175 kts | 184° |
| 2026-05-06 16:14 | 32.76342 | -16.69756 | 1078 ft | 185 kts | 184° |
| 2026-05-06 16:14 | 32.75118 | -16.69975 | 1260 ft | 172 kts | 213° |
| 2026-05-06 16:14 | 32.74334 | -16.71069 | 1014 ft | 186 kts | 249° |
| 2026-05-06 16:14 | 32.73915 | -16.72483 | 1181 ft | 173 kts | 251° |
| 2026-05-06 16:15 | 32.73795 | -16.72832 | 1187 ft | 174 kts | 242° |
| 2026-05-06 16:15 | 32.72911 | -16.73721 | 1176 ft | 174 kts | 194° |
| 2026-05-06 16:16 | 32.71678 | -16.73606 | 945 ft | 185 kts | 153° |
| 2026-05-06 16:16 | 32.70597 | -16.72915 | 1219 ft | 165 kts | 149° |
| 2026-05-06 16:16 | 32.69527 | -16.72531 | 1291 ft | 165 kts | 179° |
| 2026-05-06 16:16 | 32.68461 | -16.73024 | 1135 ft | 168 kts | 231° |
| 2026-05-06 16:17 | 32.67690 | -16.74059 | 1138 ft | 165 kts | 231° |
| 2026-05-06 16:17 | 32.66933 | -16.75021 | 1252 ft | 158 kts | 227° |
| 2026-05-06 16:17 | 32.66788 | -16.75193 | 1269 ft | 157 kts | 228° |
| 2026-05-06 16:18 | 32.66578 | -16.75441 | 1269 ft | 158 kts | 225° |
| 2026-05-06 16:18 | 32.65767 | -16.76375 | 1136 ft | 166 kts | 226° |
| 2026-05-06 16:18 | 32.64906 | -16.77280 | 1189 ft | 163 kts | 221° |
| 2026-05-06 16:18 | 32.64081 | -16.78146 | 1321 ft | 155 kts | 220° |
| 2026-05-06 16:19 | 32.63260 | -16.79028 | 1433 ft | 164 kts | 223° |
| 2026-05-06 16:19 | 32.62432 | -16.79981 | 1659 ft | 167 kts | 226° |
| 2026-05-06 16:19 | 32.62104 | -16.80371 | 1746 ft | 167 kts | 226° |
| 2026-05-06 16:20 | 32.62060 | -16.80425 | 1760 ft | 167 kts | 226° |
| 2026-05-06 16:20 | 32.61243 | -16.81421 | 1986 ft | 170 kts | 226° |
| 2026-05-06 16:20 | 32.60414 | -16.82418 | 2195 ft | 174 kts | 227° |
| 2026-05-06 16:20 | 32.59535 | -16.83440 | 2408 ft | 178 kts | 223° |
| 2026-05-06 16:21 | 32.58595 | -16.84419 | 2606 ft | 183 kts | 220° |
| 2026-05-06 16:21 | 32.57682 | -16.85564 | 2461 ft | 204 kts | 240° |
| 2026-05-06 16:21 | 32.57275 | -16.87295 | 1806 ft | 234 kts | 274° |
| 2026-05-06 16:21 | 32.57626 | -16.89069 | 1603 ft | 207 kts | 302° |
| 2026-05-06 16:22 | 32.58613 | -16.90116 | 1311 ft | 185 kts | 349° |
| 2026-05-06 16:22 | 32.59628 | -16.89857 | 1569 ft | 136 kts | 47° |
| 2026-05-06 16:22 | 32.60144 | -16.88958 | 1437 ft | 128 kts | 60° |
| 2026-05-06 16:22 | 32.60168 | -16.88903 | 1430 ft | 128 kts | 61° |
| 2026-05-06 16:23 | 32.60210 | -16.88807 | 1427 ft | 129 kts | 59° |
| 2026-05-06 16:23 | 32.60684 | -16.87769 | 1667 ft | 148 kts | 55° |
| 2026-05-06 16:23 | 32.61340 | -16.86949 | 1981 ft | 134 kts | 38° |
| 2026-05-06 16:23 | 32.62093 | -16.86261 | 2125 ft | 141 kts | 37° |
| 2026-05-06 16:24 | 32.62876 | -16.85504 | 2135 ft | 148 kts | 43° |
| 2026-05-06 16:24 | 32.63604 | -16.84655 | 2115 ft | 146 kts | 42° |
| 2026-05-06 16:24 | 32.64364 | -16.83822 | 1992 ft | 152 kts | 42° |
| 2026-05-06 16:24 | 32.65149 | -16.82967 | 1892 ft | 153 kts | 44° |
| 2026-05-06 16:25 | 32.65919 | -16.82048 | 1647 ft | 163 kts | 45° |
| 2026-05-06 16:25 | 32.66592 | -16.81213 | 1299 ft | 165 kts | 44° |
| 2026-05-06 16:25 | 32.66916 | -16.80795 | 1091 ft | 165 kts | 45° |
| 2026-05-06 16:25 | 32.67713 | -16.79860 | 660 ft | 156 kts | 39° |
| 2026-05-06 16:26 | 32.68462 | -16.78995 | 332 ft | 145 kts | 41° |
| 2026-05-06 16:26 | 32.69141 | -16.78196 | 205 ft | 124 kts | 40° |
| 2026-05-06 16:26 | 32.69690 | -16.77565 | 197 ft | 80 kts | 50° |
| 2026-05-06 16:26 | 32.69942 | -16.77266 | 203 ft | 19 kts | 46° |
| 2026-05-06 16:27 | 32.69948 | -16.77202 | 213 ft | 9 kts | 126° |
| 2026-05-06 16:27 | 32.69927 | -16.77183 | 204 ft | 6 kts | 155° |
| 2026-05-06 16:27 | 32.69872 | -16.77185 | 210 ft | 9 kts | 195° |
| 2026-05-06 16:27 | 32.69796 | -16.77230 | 200 ft | 14 kts | 225° |
| 2026-05-06 16:28 | 32.69793 | -16.77234 | 207 ft | 0 kts | 226° |
| 2026-05-06 16:28 | 32.69779 | -16.77252 | 197 ft | 9 kts | 226° |
| 2026-05-06 16:28 | 32.69706 | -16.77342 | 200 ft | 21 kts | 226° |
| 2026-05-06 16:29 | 32.69586 | -16.77491 | 195 ft | 28 kts | 226° |
| 2026-05-06 16:29 | 32.69472 | -16.77632 | 198 ft | 16 kts | 225° |
| 2026-05-06 16:29 | 32.69406 | -16.77706 | 201 ft | 6 kts | 206° |
| 2026-05-06 16:29 | 32.69394 | -16.77701 | 198 ft | 2 kts | 134° |
| 2026-05-06 16:30 | 32.69371 | -16.77675 | 190 ft | 4 kts | 137° |
| 2026-05-06 16:30 | 32.69362 | -16.77664 | 190 ft | 0 kts | 137° |
| 2026-05-06 16:33 | 32.67140 | -16.80511 | 987 ft | 162 kts | 42° |
| 2026-05-06 16:33 | 32.67938 | -16.79614 | 533 ft | 155 kts | 40° |
| 2026-05-06 16:34 | 32.69313 | -16.78003 | 188 ft | 116 kts | 43° |